Time;durP1;ratioP1;P1;durP2;ratioP2;P2;SDS_P1;SDS_P2;PMS_P1;PMS_P2;Temp;Humidity;BMP_temperature;BMP_pressure;BME280_temperature;BME280_humidity;BME280_pressure;Samples;Min_cycle;Max_cycle;Signal;HPM_P1;HPM_P2
2024/01/03 00:06:34;;;;;;;1.33;0.13;;;5.40;99.90;;;;;;21071192;28;20089;-58
2024/01/03 00:16:39;;;;;;;0.73;0.22;;;5.30;99.90;;;;;;21069519;28;20047;-59
2024/01/03 00:26:41;;;;;;;1.40;0.28;;;5.20;99.90;;;;;;21069036;28;20048;-59
2024/01/03 00:36:43;;;;;;;1.55;0.28;;;5.20;99.90;;;;;;21064099;28;20028;-58
2024/01/03 00:46:45;;;;;;;2.53;0.22;;;5.10;99.90;;;;;;21049996;28;20031;-52
2024/01/03 00:56:48;;;;;;;1.08;0.30;;;5.10;99.90;;;;;;21067029;28;20028;-59
2024/01/03 01:06:51;;;;;;;0.20;0.10;;;5.20;99.90;;;;;;21048757;28;20173;-59
2024/01/03 01:16:53;;;;;;;1.33;0.20;;;5.30;99.90;;;;;;21066224;28;20448;-60
2024/01/03 01:26:55;;;;;;;1.75;0.20;;;5.30;99.90;;;;;;21070131;28;20082;-59
2024/01/03 01:36:56;;;;;;;1.05;0.20;;;5.30;99.90;;;;;;21064689;28;20035;-59
2024/01/03 01:47:00;;;;;;;0.40;0.20;;;5.30;99.90;;;;;;21082226;28;20032;-60
2024/01/03 01:57:02;;;;;;;1.00;0.30;;;5.20;99.90;;;;;;21081510;28;20028;-59
2024/01/03 02:07:08;;;;;;;2.17;0.20;;;5.20;99.90;;;;;;21080359;28;20047;-59
2024/01/03 02:17:10;;;;;;;1.67;0.30;;;5.20;99.90;;;;;;21057168;28;20036;-60
2024/01/03 02:27:12;;;;;;;1.90;0.20;;;5.10;99.90;;;;;;21078878;28;20431;-59
2024/01/03 02:37:13;;;;;;;1.30;0.30;;;5.10;99.90;;;;;;21077636;28;20032;-60
2024/01/03 02:47:15;;;;;;;1.00;0.30;;;5.10;99.90;;;;;;21077538;28;20101;-60
2024/01/03 02:57:17;;;;;;;1.40;0.30;;;5.30;99.90;;;;;;21076118;28;20036;-60
2024/01/03 03:07:19;;;;;;;2.35;0.45;;;5.40;99.90;;;;;;21075298;28;20394;-60
2024/01/03 03:17:21;;;;;;;1.23;0.43;;;5.40;99.90;;;;;;21075089;28;20048;-60
2024/01/03 03:27:22;;;;;;;1.15;0.40;;;5.20;99.90;;;;;;21073487;28;20032;-59
2024/01/03 03:37:25;;;;;;;0.88;0.40;;;5.10;99.90;;;;;;21072832;28;20027;-60
2024/01/03 03:47:26;;;;;;;2.22;0.60;;;5.10;99.90;;;;;;21071980;28;20040;-59
2024/01/03 03:57:28;;;;;;;0.90;0.38;;;5.00;99.90;;;;;;21070057;28;20044;-60
2024/01/03 04:07:31;;;;;;;2.88;0.50;;;5.10;99.90;;;;;;21070420;28;20032;-58
2024/01/03 04:17:36;;;;;;;1.02;0.30;;;5.10;99.90;;;;;;21069740;28;20036;-60
2024/01/03 04:27:38;;;;;;;2.35;0.73;;;5.10;99.90;;;;;;21050848;28;20382;-59
2024/01/03 04:37:40;;;;;;;0.88;0.50;;;4.80;99.90;;;;;;21068321;28;20035;-60
2024/01/03 04:47:42;;;;;;;2.40;0.60;;;4.70;99.90;;;;;;21050149;28;20085;-60
2024/01/03 04:57:43;;;;;;;2.50;0.52;;;4.70;99.90;;;;;;21066645;28;20058;-59
2024/01/03 05:07:45;;;;;;;2.67;0.32;;;4.80;99.90;;;;;;21065644;28;20028;-59
2024/01/03 05:17:47;;;;;;;1.48;0.52;;;4.90;99.90;;;;;;21066311;28;20062;-59
2024/01/03 05:27:49;;;;;;;1.55;0.40;;;5.00;99.90;;;;;;21065776;28;20028;-59
2024/01/03 05:37:52;;;;;;;0.70;0.40;;;5.00;99.90;;;;;;21063733;28;20039;-59
2024/01/03 05:47:53;;;;;;;2.75;0.50;;;5.20;99.90;;;;;;21047376;28;20347;-58
2024/01/03 05:57:55;;;;;;;1.40;0.52;;;5.20;99.90;;;;;;21062513;28;20390;-58
2024/01/03 06:07:57;;;;;;;0.90;0.40;;;5.20;99.90;;;;;;21055835;28;20054;-59
2024/01/03 06:17:59;;;;;;;1.35;0.60;;;5.20;99.90;;;;;;21051351;28;20040;-60
2024/01/03 06:28:01;;;;;;;1.83;0.40;;;5.20;99.90;;;;;;21073000;28;20093;-58
2024/01/03 06:38:03;;;;;;;1.42;0.43;;;5.30;99.90;;;;;;21073946;28;20044;-59
2024/01/03 06:48:07;;;;;;;1.15;0.50;;;5.30;99.90;;;;;;21073681;28;20028;-58
2024/01/03 06:58:08;;;;;;;0.93;0.40;;;5.40;99.90;;;;;;21070603;28;20028;-58
2024/01/03 07:08:11;;;;;;;2.28;0.70;;;5.20;99.90;;;;;;21067990;28;20035;-58
2024/01/03 07:18:13;;;;;;;1.05;0.50;;;5.20;99.90;;;;;;21068954;28;20040;-58
2024/01/03 07:28:15;;;;;;;0.77;0.40;;;5.20;99.90;;;;;;21067469;28;20043;-58
2024/01/03 07:38:17;;;;;;;0.95;0.25;;;5.10;99.90;;;;;;21067785;28;20050;-57
2024/01/03 07:48:19;;;;;;;1.63;0.40;;;5.30;99.90;;;;;;21064737;28;20078;-59
2024/01/03 07:58:20;;;;;;;0.88;0.40;;;5.40;99.90;;;;;;21065749;28;20024;-58
2024/01/03 08:08:25;;;;;;;1.42;0.55;;;5.20;99.90;;;;;;21065203;28;20039;-58
2024/01/03 08:18:27;;;;;;;1.92;0.60;;;4.70;99.90;;;;;;21046771;28;20039;-59
2024/01/03 08:28:29;;;;;;;0.98;0.60;;;4.70;99.90;;;;;;21062549;28;20454;-59
2024/01/03 08:38:31;;;;;;;0.90;0.45;;;4.70;99.90;;;;;;21044035;28;20043;-59
2024/01/03 08:48:33;;;;;;;0.35;0.20;;;5.10;99.90;;;;;;21064358;28;20538;-59
2024/01/03 08:58:35;;;;;;;3.40;0.20;;;6.00;99.90;;;;;;21061239;28;20481;-60
2024/01/03 09:08:37;;;;;;;1.23;0.80;;;7.00;99.90;;;;;;21061586;28;20039;-59
2024/01/03 09:18:39;;;;;;;1.70;0.80;;;8.20;99.90;;;;;;21042300;28;20044;-60
2024/01/03 09:28:41;;;;;;;0.65;0.30;;;7.90;99.90;;;;;;21061178;28;20336;-47
2024/01/03 09:38:43;;;;;;;0.82;0.30;;;7.80;99.90;;;;;;21059845;28;20040;-60
2024/01/03 09:48:48;;;;;;;0.50;0.10;;;8.90;99.90;;;;;;21065159;28;20028;-60
2024/01/03 09:58:50;;;;;;;4.43;2.60;;;9.40;98.00;;;;;;21075814;28;20032;-61
2024/01/03 10:09:03;;;;;;;5.28;2.95;;;9.80;99.90;;;;;;21075222;28;20024;-61
2024/01/03 10:19:12;;;;;;;0.95;0.63;;;10.00;99.90;;;;;;21074599;28;20036;-60
2024/01/03 10:29:19;;;;;;;6.20;4.03;;;9.90;98.10;;;;;;21074743;28;20512;-59
2024/01/03 10:39:21;;;;;;;5.45;3.30;;;9.10;99.90;;;;;;21073162;28;20388;-59
2024/01/03 10:49:23;;;;;;;7.38;4.72;;;8.70;99.90;;;;;;21071988;28;20152;-58
2024/01/03 10:59:33;;;;;;;12.07;5.53;;;8.70;99.90;;;;;;21053578;28;20032;-51
2024/01/03 11:09:35;;;;;;;7.73;4.90;;;8.80;99.90;;;;;;21068522;28;20093;-59
2024/01/03 11:19:38;;;;;;;8.10;5.57;;;8.90;99.90;;;;;;21068646;28;20048;-52
2024/01/03 11:29:50;;;;;;;9.77;6.40;;;9.30;99.90;;;;;;21067812;28;20028;-46
2024/01/03 11:39:54;;;;;;;9.20;5.13;;;9.10;99.90;;;;;;21067162;28;20036;-47
2024/01/03 11:49:57;;;;;;;11.90;6.45;;;9.50;99.90;;;;;;21067871;28;20040;-58
2024/01/03 11:59:59;;;;;;;10.27;6.43;;;9.70;99.90;;;;;;21065716;28;20105;-47
2024/01/03 12:10:06;;;;;;;7.53;4.72;;;9.60;99.90;;;;;;21065112;28;20032;-44
2024/01/03 12:20:14;;;;;;;9.00;6.13;;;8.90;99.90;;;;;;21061052;28;20032;-49
2024/01/03 12:30:22;;;;;;;9.10;5.75;;;9.60;99.90;;;;;;21065592;28;20028;-45
2024/01/03 12:40:24;;;;;;;7.45;5.40;;;9.10;99.90;;;;;;21062606;28;20044;-45
2024/01/03 12:50:26;;;;;;;9.13;5.65;;;9.20;99.90;;;;;;21059326;28;20089;-44
2024/01/03 13:00:28;;;;;;;8.65;5.00;;;9.10;99.90;;;;;;21061982;28;20085;-53
2024/01/03 13:10:30;;;;;;;9.38;5.50;;;8.70;99.90;;;;;;21061508;28;20023;-60
2024/01/03 13:20:33;;;;;;;8.85;5.82;;;8.70;99.90;;;;;;21061168;28;20482;-61
2024/01/03 13:30:35;;;;;;;8.93;5.63;;;8.20;99.90;;;;;;21078680;28;20389;-54
2024/01/03 13:40:39;;;;;;;10.43;6.40;;;7.60;99.90;;;;;;21075832;28;20086;-55
2024/01/03 13:50:42;;;;;;;12.65;7.80;;;7.10;99.90;;;;;;21076807;28;20028;-49
2024/01/03 14:00:45;;;;;;;14.57;8.77;;;6.70;99.90;;;;;;21058060;28;20035;-55
2024/01/03 14:10:47;;;;;;;7.15;4.22;;;5.90;99.90;;;;;;21075354;28;20028;-48
2024/01/03 14:20:49;;;;;;;10.73;4.15;;;5.40;99.90;;;;;;21071263;28;20036;-48
2024/01/03 14:30:51;;;;;;;6.30;3.58;;;5.60;99.90;;;;;;21073311;28;20024;-56
2024/01/03 14:40:54;;;;;;;7.85;4.50;;;5.50;99.90;;;;;;21072633;28;20058;-54
2024/01/03 14:51:04;;;;;;;8.07;3.65;;;5.40;99.90;;;;;;21072068;28;20431;-57
2024/01/03 15:01:06;;;;;;;5.85;2.35;;;5.10;99.90;;;;;;21070282;28;20069;-57
2024/01/03 15:11:08;;;;;;;0.90;0.20;;;4.60;99.90;;;;;;21069647;28;20098;-57
2024/01/03 15:21:10;;;;;;;1.98;0.20;;;4.70;99.90;;;;;;21069544;28;20040;-57
2024/01/03 15:31:11;;;;;;;3.40;0.35;;;5.10;99.90;;;;;;21068735;28;20032;-57
2024/01/03 15:41:16;;;;;;;1.00;0.20;;;5.10;99.90;;;;;;21067101;28;20040;-57
2024/01/03 15:51:18;;;;;;;0.30;0.10;;;5.10;99.70;;;;;;21046808;28;20044;-57
2024/01/03 16:01:20;;;;;;;1.95;0.20;;;5.10;99.40;;;;;;21064885;28;20081;-56
2024/01/03 16:11:22;;;;;;;1.58;0.30;;;4.70;99.30;;;;;;21036752;28;20028;-56
2024/01/03 16:21:24;;;;;;;2.45;0.30;;;4.80;98.70;;;;;;21065693;28;20044;-56
2024/01/03 16:31:26;;;;;;;2.63;0.30;;;5.20;98.70;;;;;;21069052;28;20054;-56
2024/01/03 16:41:31;;;;;;;2.15;0.35;;;5.00;99.90;;;;;;21068160;28;20040;-57
2024/01/03 16:51:33;;;;;;;1.50;0.30;;;4.70;99.90;;;;;;21067818;28;20485;-56
2024/01/03 17:01:36;;;;;;;2.22;0.40;;;4.90;99.90;;;;;;21067745;28;20051;-56
2024/01/03 17:11:39;;;;;;;2.55;0.47;;;5.50;98.80;;;;;;21062265;28;20036;-57
2024/01/03 17:21:40;;;;;;;1.75;0.40;;;5.30;99.90;;;;;;21065555;28;20559;-57
2024/01/03 17:31:42;;;;;;;1.30;0.38;;;5.50;99.90;;;;;;21047876;28;20040;-57
2024/01/03 17:41:45;;;;;;;1.70;0.30;;;5.80;99.10;;;;;;21065453;28;20039;-57
2024/01/03 17:51:48;;;;;;;1.45;0.32;;;5.90;98.90;;;;;;21065414;28;20390;-57
2024/01/03 18:01:51;;;;;;;3.63;0.63;;;5.70;99.90;;;;;;21064653;28;20035;-57
2024/01/03 18:11:52;;;;;;;2.08;0.40;;;5.60;99.90;;;;;;21072034;28;20032;-57
2024/01/03 18:21:57;;;;;;;2.70;0.63;;;5.40;99.90;;;;;;21060331;28;20048;-57
2024/01/03 18:32:02;;;;;;;6.28;1.10;;;5.40;99.90;;;;;;21074216;28;20036;-57
2024/01/03 18:42:04;;;;;;;3.55;0.88;;;5.30;99.90;;;;;;21074636;28;20047;-57
2024/01/03 18:52:06;;;;;;;9.32;0.90;;;5.50;99.90;;;;;;21069881;28;20090;-57
2024/01/03 19:02:12;;;;;;;4.00;0.93;;;5.40;99.90;;;;;;21045077;28;20036;-57
2024/01/03 19:12:14;;;;;;;5.45;1.15;;;5.20;99.90;;;;;;21072255;28;20035;-60
2024/01/03 19:22:16;;;;;;;4.28;0.75;;;4.90;99.90;;;;;;21072169;28;20032;-58
2024/01/03 19:32:18;;;;;;;4.53;1.30;;;5.10;99.90;;;;;;21069158;28;20107;-58
2024/01/03 19:42:19;;;;;;;5.65;1.00;;;5.10;99.90;;;;;;21050088;28;20053;-57
2024/01/03 19:52:21;;;;;;;9.45;1.17;;;4.90;99.90;;;;;;21071375;28;20486;-57
2024/01/03 20:02:23;;;;;;;7.00;1.02;;;5.00;99.90;;;;;;21048924;28;20039;-58
2024/01/03 20:12:25;;;;;;;8.77;1.27;;;5.00;99.90;;;;;;21068020;28;20040;-58
2024/01/03 20:22:27;;;;;;;9.27;1.85;;;4.90;99.90;;;;;;21028863;28;20059;-57
2024/01/03 20:32:28;;;;;;;6.07;1.23;;;4.60;99.90;;;;;;21065128;28;20054;-58
2024/01/03 20:42:31;;;;;;;12.10;1.60;;;4.80;99.90;;;;;;21066620;28;20028;-58
2024/01/03 20:52:35;;;;;;;5.03;1.27;;;4.70;99.90;;;;;;21067072;28;20028;-58
2024/01/03 21:02:41;;;;;;;6.40;1.77;;;4.60;99.90;;;;;;21063776;28;20040;-57
2024/01/03 21:12:43;;;;;;;5.10;0.75;;;4.70;99.90;;;;;;21062052;28;20028;-57
2024/01/03 21:22:45;;;;;;;7.10;1.25;;;5.10;99.90;;;;;;21065683;28;20056;-58
2024/01/03 21:32:48;;;;;;;6.40;1.42;;;5.00;99.90;;;;;;21060604;28;20046;-57
2024/01/03 21:42:50;;;;;;;9.50;1.55;;;4.80;99.90;;;;;;21060720;28;20032;-59
2024/01/03 21:52:53;;;;;;;11.27;1.52;;;4.70;99.90;;;;;;21078142;28;20024;-60
2024/01/03 22:02:55;;;;;;;8.50;1.58;;;5.10;99.90;;;;;;21074927;28;20040;-60
2024/01/03 22:12:58;;;;;;;6.85;1.33;;;4.80;99.90;;;;;;21079284;28;20825;-60
2024/01/03 22:23:00;;;;;;;4.78;1.13;;;4.60;99.90;;;;;;21074474;28;20199;-60
2024/01/03 22:33:02;;;;;;;6.68;1.10;;;5.00;99.90;;;;;;21079479;28;20032;-60
2024/01/03 22:43:03;;;;;;;5.75;1.38;;;5.30;99.90;;;;;;21078003;28;20024;-60
2024/01/03 22:53:05;;;;;;;5.43;1.20;;;5.10;99.90;;;;;;21077375;28;20039;-59
2024/01/03 23:03:10;;;;;;;11.13;1.67;;;5.10;99.90;;;;;;21076832;28;20040;-60
2024/01/03 23:13:15;;;;;;;5.38;1.20;;;5.00;99.90;;;;;;21075646;28;20389;-59
2024/01/03 23:23:17;;;;;;;6.63;1.30;;;5.10;99.90;;;;;;21074882;28;20379;-60
2024/01/03 23:33:22;;;;;;;4.90;1.00;;;5.20;99.90;;;;;;21074346;28;20394;-60
2024/01/03 23:43:23;;;;;;;5.57;0.95;;;5.20;99.90;;;;;;21073418;28;20028;-60
2024/01/03 23:53:25;;;;;;;3.25;1.27;;;5.20;99.90;;;;;;21072865;28;20040;-60
